createdAt,value
2023-03-05T00:00:17.059Z,0.00
2023-03-05T00:01:17.071Z,0.00
2023-03-05T00:02:17.069Z,0.00
2023-03-05T00:03:17.049Z,0.00
2023-03-05T00:04:16.997Z,0.00
2023-03-05T00:05:17.022Z,0.00
2023-03-05T00:06:17.131Z,0.00
2023-03-05T00:07:17.021Z,0.00
2023-03-05T00:08:17.113Z,0.00
2023-03-05T00:09:16.947Z,0.00
2023-03-05T00:10:16.943Z,0.00
2023-03-05T00:11:16.929Z,0.00
2023-03-05T00:12:16.894Z,0.00
2023-03-05T00:13:16.907Z,0.00
2023-03-05T00:14:16.902Z,0.00
2023-03-05T00:15:16.865Z,0.00
2023-03-05T00:16:16.946Z,0.00
2023-03-05T00:17:16.863Z,0.00
2023-03-05T00:18:16.825Z,0.00
2023-03-05T00:19:16.824Z,0.00
2023-03-05T00:20:16.802Z,0.00
2023-03-05T00:21:16.797Z,0.00
2023-03-05T00:22:16.795Z,0.00
2023-03-05T00:23:16.781Z,0.00
2023-03-05T00:24:16.814Z,0.00
2023-03-05T00:25:16.750Z,0.00
2023-03-05T00:26:16.731Z,0.00
2023-03-05T00:27:16.790Z,0.00
2023-03-05T00:28:16.760Z,0.00
2023-03-05T00:29:16.713Z,0.00
2023-03-05T00:30:16.697Z,0.00
2023-03-05T00:31:16.723Z,0.00
2023-03-05T00:32:16.702Z,0.00
2023-03-05T00:33:16.673Z,0.00
2023-03-05T00:34:16.676Z,0.00
2023-03-05T00:35:16.634Z,0.00
2023-03-05T00:36:16.632Z,0.00
2023-03-05T00:37:16.614Z,0.00
2023-03-05T00:38:16.604Z,0.00
2023-03-05T00:39:16.606Z,0.00
2023-03-05T00:40:16.636Z,0.00
2023-03-05T00:41:16.576Z,0.00
2023-03-05T00:42:16.586Z,0.00
2023-03-05T00:43:16.564Z,0.00
2023-03-05T00:44:16.540Z,0.00
2023-03-05T00:45:16.519Z,0.00
2023-03-05T00:46:16.569Z,0.00
2023-03-05T00:47:16.500Z,0.00
2023-03-05T00:48:16.493Z,0.00
2023-03-05T00:49:16.527Z,0.00
2023-03-05T00:50:16.464Z,0.00
2023-03-05T00:51:16.445Z,0.00
2023-03-05T00:52:16.556Z,0.00
2023-03-05T00:53:16.427Z,0.00
2023-03-05T00:54:16.425Z,0.00
2023-03-05T00:55:16.411Z,0.00
2023-03-05T00:56:16.453Z,0.00
2023-03-05T00:57:16.384Z,0.00
2023-03-05T00:58:16.383Z,0.00
2023-03-05T00:59:16.360Z,0.00
2023-03-05T01:00:16.361Z,0.00
2023-03-05T01:01:16.457Z,0.00
2023-03-05T01:02:16.320Z,0.00
2023-03-05T01:03:16.310Z,0.00
2023-03-05T01:04:16.315Z,0.00
2023-03-05T01:05:16.330Z,0.00
2023-03-05T01:06:16.266Z,0.00
2023-03-05T01:07:16.251Z,0.00
2023-03-05T01:08:16.231Z,0.00
2023-03-05T01:09:16.236Z,0.00
2023-03-05T01:10:16.227Z,0.00
2023-03-05T01:11:16.233Z,0.00
2023-03-05T01:12:16.185Z,0.00
2023-03-05T01:13:16.179Z,0.00
2023-03-05T01:14:16.179Z,0.00
2023-03-05T01:15:16.196Z,0.00
2023-03-05T01:16:16.243Z,0.00
2023-03-05T01:17:16.157Z,0.00
2023-03-05T01:18:16.109Z,0.00
2023-03-05T01:19:16.097Z,0.00
2023-03-05T01:20:16.114Z,0.00
2023-03-05T01:21:16.176Z,0.00
2023-03-05T01:22:16.083Z,0.00
2023-03-05T01:23:16.058Z,0.00
2023-03-05T01:24:16.036Z,0.00
2023-03-05T01:25:16.046Z,0.00
2023-03-05T01:26:16.109Z,0.00
2023-03-05T01:27:16.033Z,0.00
2023-03-05T01:28:16.013Z,0.00
2023-03-05T01:29:15.994Z,0.00
2023-03-05T01:30:15.961Z,0.00
2023-03-05T01:31:16.021Z,0.00
2023-03-05T01:32:15.959Z,0.00
2023-03-05T01:33:15.963Z,0.00
2023-03-05T01:34:15.917Z,0.00
2023-03-05T01:35:15.910Z,0.00
2023-03-05T01:36:15.965Z,0.00
2023-03-05T01:37:15.893Z,0.00
2023-03-05T01:38:15.872Z,0.00
2023-03-05T01:39:15.884Z,0.00
2023-03-05T01:40:15.951Z,0.00
2023-03-05T01:41:15.866Z,0.00
2023-03-05T01:42:15.824Z,0.00
2023-03-05T01:43:15.817Z,0.00
2023-03-05T01:44:15.798Z,0.00
2023-03-05T01:45:15.808Z,0.00
2023-03-05T01:46:15.844Z,0.00
2023-03-05T01:47:15.772Z,0.00
2023-03-05T01:48:15.754Z,0.00
2023-03-05T01:49:15.759Z,0.00
2023-03-05T01:50:15.843Z,0.00
2023-03-05T01:51:15.743Z,0.00
2023-03-05T01:52:15.713Z,0.00
2023-03-05T01:53:15.722Z,0.00
2023-03-05T01:54:15.794Z,0.00
2023-03-05T01:55:15.685Z,0.00
2023-03-05T01:56:15.664Z,0.00
2023-03-05T01:57:15.691Z,0.00
2023-03-05T01:58:15.633Z,0.00
2023-03-05T01:59:15.627Z,0.00
2023-03-05T02:00:15.640Z,0.00
2023-03-05T02:01:15.666Z,0.00
2023-03-05T02:02:15.622Z,0.00
2023-03-05T02:03:15.592Z,0.00
2023-03-05T02:04:15.582Z,0.00
2023-03-05T02:05:15.560Z,0.00
2023-03-05T02:06:15.541Z,0.00
2023-03-05T02:07:15.729Z,0.00
2023-03-05T02:08:15.548Z,0.00
2023-03-05T02:09:15.538Z,0.00
2023-03-05T02:10:15.492Z,0.00
2023-03-05T02:11:15.490Z,0.00
2023-03-05T02:12:15.470Z,0.00
2023-03-05T02:13:15.471Z,0.00
2023-03-05T02:14:15.473Z,0.00
2023-03-05T02:15:15.441Z,0.00
2023-03-05T02:16:15.459Z,0.00
2023-03-05T02:17:15.421Z,0.00
2023-03-05T02:18:15.403Z,0.00
2023-03-05T02:19:15.400Z,0.00
2023-03-05T02:20:15.393Z,0.00
2023-03-05T02:21:15.375Z,0.00
2023-03-05T02:22:15.352Z,0.00
2023-03-05T02:23:15.364Z,0.00
2023-03-05T02:24:15.335Z,0.00
2023-03-05T02:25:15.329Z,0.00
2023-03-05T02:26:15.326Z,0.00
2023-03-05T02:27:15.314Z,0.00
2023-03-05T02:28:15.284Z,0.00
2023-03-05T02:29:15.300Z,0.00
2023-03-05T02:30:15.292Z,0.00
2023-03-05T02:31:15.271Z,0.00
2023-03-05T02:32:15.326Z,0.00
2023-03-05T02:33:15.255Z,0.00
2023-03-05T02:34:15.222Z,0.00
2023-03-05T02:35:15.212Z,0.00
2023-03-05T02:36:15.202Z,0.00
2023-03-05T02:37:15.226Z,0.00
2023-03-05T02:38:15.177Z,0.00
2023-03-05T02:39:15.175Z,0.00
2023-03-05T02:40:15.154Z,0.00
2023-03-05T02:41:15.152Z,0.00
2023-03-05T02:42:15.131Z,0.00
2023-03-05T02:43:15.300Z,0.00
2023-03-05T02:44:15.121Z,0.00
2023-03-05T02:45:15.113Z,0.00
2023-03-05T02:46:15.223Z,0.00
2023-03-05T02:47:15.098Z,0.00
2023-03-05T02:48:15.243Z,0.00
2023-03-05T02:49:15.072Z,0.00
2023-03-05T02:50:15.044Z,0.00
2023-03-05T02:51:15.056Z,0.00
2023-03-05T02:52:15.023Z,0.00
2023-03-05T02:53:15.219Z,0.00
2023-03-05T02:54:15.020Z,0.00
2023-03-05T02:55:14.991Z,0.00
2023-03-05T02:56:14.981Z,0.00
2023-03-05T02:57:14.964Z,0.00
2023-03-05T02:58:14.970Z,0.00
2023-03-05T02:59:14.944Z,0.00
2023-03-05T03:00:15.001Z,0.00
2023-03-05T03:01:14.954Z,0.00
2023-03-05T03:02:14.903Z,0.00
2023-03-05T03:03:14.961Z,0.00
2023-03-05T03:04:14.884Z,0.00
2023-03-05T03:05:14.874Z,0.00
2023-03-05T03:06:14.879Z,0.00
2023-03-05T03:07:14.852Z,0.00
2023-03-05T03:08:14.842Z,0.00
2023-03-05T03:09:14.836Z,0.00
2023-03-05T03:10:14.819Z,0.00
2023-03-05T03:11:14.835Z,0.00
2023-03-05T03:12:14.806Z,0.00
2023-03-05T03:13:14.789Z,0.00
2023-03-05T03:14:14.813Z,0.00
2023-03-05T03:15:14.772Z,0.00
2023-03-05T03:16:14.754Z,0.00
2023-03-05T03:17:14.782Z,0.00
2023-03-05T03:18:14.728Z,0.00
2023-03-05T03:19:14.734Z,0.00
2023-03-05T03:20:14.714Z,0.00
2023-03-05T03:21:14.703Z,0.00
2023-03-05T03:22:14.703Z,0.00
2023-03-05T03:23:14.701Z,0.00
2023-03-05T03:24:14.671Z,0.00
2023-03-05T03:25:14.660Z,0.00
2023-03-05T03:26:14.692Z,0.00
2023-03-05T03:27:14.637Z,0.00
2023-03-05T03:28:14.624Z,0.00
2023-03-05T03:29:14.614Z,0.00
2023-03-05T03:30:14.608Z,0.00
2023-03-05T03:31:14.678Z,0.00
2023-03-05T03:32:14.600Z,0.00
2023-03-05T03:33:14.586Z,0.00
2023-03-05T03:34:14.555Z,0.00
2023-03-05T03:35:14.616Z,0.00
2023-03-05T03:36:14.550Z,0.00
2023-03-05T03:37:14.526Z,0.00
2023-03-05T03:38:14.514Z,0.00
2023-03-05T03:39:14.558Z,0.00
2023-03-05T03:40:14.498Z,0.00
2023-03-05T03:41:14.474Z,0.00
2023-03-05T03:42:14.470Z,0.00
2023-03-05T03:43:14.454Z,0.00
2023-03-05T03:44:14.454Z,0.00
2023-03-05T03:45:14.444Z,0.00
2023-03-05T03:46:14.468Z,0.00
2023-03-05T03:47:14.416Z,0.00
2023-03-05T03:48:14.408Z,0.00
2023-03-05T03:49:14.386Z,0.00
2023-03-05T03:50:14.396Z,0.00
2023-03-05T03:51:14.364Z,0.00
2023-03-05T03:52:14.355Z,0.00
2023-03-05T03:53:14.373Z,0.00
2023-03-05T03:54:14.340Z,0.00
2023-03-05T03:55:14.336Z,0.00
2023-03-05T03:56:14.347Z,0.00
2023-03-05T03:57:14.305Z,0.00
2023-03-05T03:58:14.311Z,0.00
2023-03-05T03:59:14.319Z,0.00
2023-03-05T04:00:14.283Z,0.00
2023-03-05T04:01:14.256Z,0.00
2023-03-05T04:02:14.353Z,0.00
2023-03-05T04:03:14.247Z,0.00
2023-03-05T04:04:14.267Z,0.00
2023-03-05T04:05:14.226Z,0.00
2023-03-05T04:06:14.204Z,0.00
2023-03-05T04:07:14.196Z,0.00
2023-03-05T04:08:14.204Z,0.00
2023-03-05T04:09:14.199Z,0.00
2023-03-05T04:10:14.166Z,0.00
2023-03-05T04:11:14.144Z,0.00
2023-03-05T04:12:14.135Z,0.00
2023-03-05T04:13:14.145Z,0.00
2023-03-05T04:14:14.133Z,0.00
2023-03-05T04:15:14.105Z,0.00
2023-03-05T04:16:14.124Z,0.00
2023-03-05T04:17:14.079Z,0.00
2023-03-05T04:18:14.084Z,0.00
2023-03-05T04:19:14.064Z,0.00
2023-03-05T04:20:14.068Z,0.00
2023-03-05T04:21:14.051Z,0.00
2023-03-05T04:22:14.037Z,0.00
2023-03-05T04:23:14.026Z,0.00
2023-03-05T04:24:23.088Z,0.00
2023-03-05T04:25:14.012Z,0.00
2023-03-05T04:26:13.982Z,0.00
2023-03-05T04:27:13.970Z,0.00
2023-03-05T04:28:13.964Z,0.00
2023-03-05T04:29:13.946Z,0.00
2023-03-05T04:30:13.932Z,0.00
2023-03-05T04:31:14.018Z,0.00
2023-03-05T04:32:13.921Z,0.00
2023-03-05T04:33:13.897Z,0.00
2023-03-05T04:34:13.895Z,0.00
2023-03-05T04:35:13.879Z,0.00
2023-03-05T04:36:13.871Z,0.00
2023-03-05T04:37:13.860Z,0.00
2023-03-05T04:38:13.852Z,0.00
2023-03-05T04:39:13.826Z,0.00
2023-03-05T04:40:13.826Z,0.00
2023-03-05T04:41:13.804Z,0.00
2023-03-05T04:42:13.832Z,0.00
2023-03-05T04:43:13.784Z,0.00
2023-03-05T04:44:13.777Z,0.00
2023-03-05T04:45:13.766Z,0.00
2023-03-05T04:46:13.777Z,0.00
2023-03-05T04:47:13.749Z,0.00
2023-03-05T04:48:13.740Z,0.00
2023-03-05T04:49:13.717Z,0.00
2023-03-05T04:50:13.703Z,0.00
2023-03-05T04:51:13.690Z,0.00
2023-03-05T04:52:13.688Z,0.00
2023-03-05T04:53:13.726Z,0.00
2023-03-05T04:54:13.659Z,0.00
2023-03-05T04:55:13.684Z,0.00
2023-03-05T04:56:13.644Z,0.00
2023-03-05T04:57:13.644Z,0.00
2023-03-05T04:58:13.646Z,0.00
2023-03-05T04:59:13.693Z,0.00
2023-03-05T05:00:13.618Z,0.00
2023-03-05T05:01:13.606Z,0.00
2023-03-05T05:02:13.574Z,0.00
2023-03-05T05:03:13.664Z,0.00
2023-03-05T05:04:13.565Z,0.00
2023-03-05T05:05:13.562Z,0.00
2023-03-05T05:06:13.532Z,0.00
2023-03-05T05:07:13.521Z,0.00
2023-03-05T05:08:13.511Z,0.00
2023-03-05T05:09:13.494Z,0.00
2023-03-05T05:10:13.494Z,0.00
2023-03-05T05:11:13.482Z,0.00
2023-03-05T05:12:13.481Z,0.00
2023-03-05T05:13:13.451Z,0.00
2023-03-05T05:14:13.442Z,0.00
2023-03-05T05:15:13.462Z,0.00
2023-03-05T05:16:13.468Z,0.00
2023-03-05T05:17:13.423Z,0.00
2023-03-05T05:18:13.401Z,0.00
2023-03-05T05:19:13.418Z,0.00
2023-03-05T05:20:13.385Z,0.00
2023-03-05T05:21:13.362Z,0.00
2023-03-05T05:22:13.371Z,0.00
2023-03-05T05:23:13.344Z,0.00
2023-03-05T05:24:13.333Z,0.00
2023-03-05T05:25:13.320Z,0.00
2023-03-05T05:26:13.315Z,0.00
2023-03-05T05:27:13.309Z,0.00
2023-03-05T05:28:13.310Z,0.00
2023-03-05T05:29:13.280Z,0.00
2023-03-05T05:30:13.290Z,0.00
2023-03-05T05:31:13.336Z,0.00
2023-03-05T05:32:13.293Z,0.00
2023-03-05T05:33:13.231Z,0.00
2023-03-05T05:34:13.242Z,0.00
2023-03-05T05:35:13.212Z,0.00
2023-03-05T05:36:13.207Z,0.00
2023-03-05T05:37:13.191Z,0.00
2023-03-05T05:38:13.183Z,0.00
2023-03-05T05:39:13.185Z,0.00
2023-03-05T05:40:13.168Z,0.00
2023-03-05T05:41:13.164Z,0.00
2023-03-05T05:42:13.145Z,0.00
2023-03-05T05:43:13.135Z,0.00
2023-03-05T05:44:13.125Z,0.00
2023-03-05T05:45:13.138Z,0.00
2023-03-05T05:46:13.236Z,0.00
2023-03-05T05:47:13.085Z,0.00
2023-03-05T05:48:13.094Z,0.00
2023-03-05T05:49:13.076Z,0.00
2023-03-05T05:50:13.088Z,0.00
2023-03-05T05:51:13.036Z,0.00
2023-03-05T05:52:13.037Z,0.00
2023-03-05T05:53:13.034Z,0.00
2023-03-05T05:54:13.017Z,0.00
2023-03-05T05:55:13.015Z,0.00
2023-03-05T05:56:13.007Z,0.00
2023-03-05T05:57:12.980Z,0.00
2023-03-05T05:58:12.980Z,0.00
2023-03-05T05:59:12.958Z,0.00
2023-03-05T06:00:12.953Z,0.00
2023-03-05T06:01:12.935Z,0.00
2023-03-05T06:02:12.997Z,0.00
2023-03-05T06:03:12.984Z,0.00
2023-03-05T06:04:12.907Z,0.00
2023-03-05T06:05:12.890Z,0.00
2023-03-05T06:06:12.888Z,0.00
2023-03-05T06:07:12.863Z,0.00
2023-03-05T06:08:12.898Z,0.00
2023-03-05T06:09:12.844Z,5.62
2023-03-05T06:10:12.835Z,5.62
2023-03-05T06:11:12.834Z,5.62
2023-03-05T06:12:12.828Z,5.62
2023-03-05T06:13:12.832Z,5.62
2023-03-05T06:14:12.815Z,5.62
2023-03-05T06:15:12.794Z,5.62
2023-03-05T06:16:12.798Z,5.62
2023-03-05T06:17:14.838Z,5.62
2023-03-05T06:18:12.743Z,5.62
2023-03-05T06:19:12.752Z,5.62
2023-03-05T06:20:12.736Z,5.62
2023-03-05T06:21:12.715Z,5.62
2023-03-05T06:22:12.707Z,11.25
2023-03-05T06:23:12.693Z,11.25
2023-03-05T06:24:12.689Z,11.25
2023-03-05T06:25:12.715Z,11.25
2023-03-05T06:26:12.672Z,11.25
2023-03-05T06:27:12.645Z,11.25
2023-03-05T06:28:12.632Z,11.25
2023-03-05T06:29:12.622Z,16.88
2023-03-05T06:30:12.616Z,16.88
2023-03-05T06:31:12.710Z,16.88
2023-03-05T06:32:12.619Z,22.50
2023-03-05T06:33:12.639Z,22.50
2023-03-05T06:34:12.579Z,22.50
2023-03-05T06:35:12.560Z,22.50
2023-03-05T06:36:12.551Z,22.50
2023-03-05T06:37:12.557Z,28.12
2023-03-05T06:38:12.522Z,28.12
2023-03-05T06:39:12.514Z,33.75
2023-03-05T06:40:12.501Z,33.75
2023-03-05T06:41:12.493Z,39.38
2023-03-05T06:42:12.485Z,39.38
2023-03-05T06:43:12.484Z,39.38
2023-03-05T06:44:12.461Z,39.38
2023-03-05T06:45:12.448Z,39.38
2023-03-05T06:46:12.521Z,39.38
2023-03-05T06:47:12.428Z,39.38
2023-03-05T06:48:12.461Z,33.75
2023-03-05T06:49:12.405Z,39.38
2023-03-05T06:50:12.396Z,45.00
2023-03-05T06:51:12.381Z,45.00
2023-03-05T06:52:12.370Z,45.00
2023-03-05T06:53:12.360Z,50.62
2023-03-05T06:54:12.374Z,45.00
2023-03-05T06:55:12.341Z,45.00
2023-03-05T06:56:12.331Z,45.00
2023-03-05T06:57:12.330Z,50.62
2023-03-05T06:58:12.300Z,56.25
2023-03-05T06:59:12.331Z,56.25
2023-03-05T07:00:12.292Z,56.25
2023-03-05T07:01:12.367Z,56.25
2023-03-05T07:02:12.289Z,56.25
2023-03-05T07:03:12.249Z,61.88
2023-03-05T07:04:12.250Z,61.88
2023-03-05T07:05:12.240Z,67.50
2023-03-05T07:06:12.227Z,73.12
2023-03-05T07:07:12.219Z,78.75
2023-03-05T07:08:12.205Z,78.75
2023-03-05T07:09:12.190Z,84.38
2023-03-05T07:10:12.197Z,84.38
2023-03-05T07:11:12.199Z,84.38
2023-03-05T07:12:12.170Z,84.38
2023-03-05T07:13:12.140Z,84.38
2023-03-05T07:14:12.133Z,84.38
2023-03-05T07:15:12.118Z,90.00
2023-03-05T07:16:12.263Z,90.00
2023-03-05T07:17:12.098Z,90.00
2023-03-05T07:18:12.090Z,90.00
2023-03-05T07:19:12.079Z,95.62
2023-03-05T07:20:12.071Z,95.62
2023-03-05T07:21:12.049Z,95.62
2023-03-05T07:22:12.072Z,95.62
2023-03-05T07:23:12.039Z,90.00
2023-03-05T07:24:12.023Z,90.00
2023-03-05T07:25:12.012Z,84.38
2023-03-05T07:26:11.999Z,84.38
2023-03-05T07:27:11.991Z,84.38
2023-03-05T07:28:11.998Z,84.38
2023-03-05T07:29:11.967Z,84.38
2023-03-05T07:30:11.965Z,84.38
2023-03-05T07:31:11.983Z,78.75
2023-03-05T07:32:11.976Z,78.75
2023-03-05T07:33:11.919Z,78.75
2023-03-05T07:34:11.918Z,78.75
2023-03-05T07:35:11.901Z,78.75
2023-03-05T07:36:11.888Z,84.38
2023-03-05T07:37:11.878Z,90.00
2023-03-05T07:38:11.869Z,95.62
2023-03-05T07:39:11.877Z,101.25
2023-03-05T07:40:11.858Z,101.25
2023-03-05T07:41:11.834Z,106.88
2023-03-05T07:42:11.862Z,112.50
2023-03-05T07:43:11.809Z,112.50
2023-03-05T07:44:11.802Z,112.50
2023-03-05T07:45:11.819Z,112.50
2023-03-05T07:46:11.807Z,112.50
2023-03-05T07:47:11.778Z,106.88
2023-03-05T07:48:11.758Z,106.88
2023-03-05T07:49:11.748Z,106.88
2023-03-05T07:50:11.788Z,106.88
2023-03-05T07:51:11.769Z,106.88
2023-03-05T07:52:11.719Z,101.25
2023-03-05T07:53:11.719Z,101.25
2023-03-05T07:54:11.688Z,95.62
2023-03-05T07:55:11.690Z,90.00
2023-03-05T07:56:11.679Z,90.00
2023-03-05T07:57:11.677Z,84.38
2023-03-05T07:58:11.649Z,84.38
2023-03-05T07:59:11.640Z,84.38
2023-03-05T08:00:11.628Z,78.75
2023-03-05T08:01:13.353Z,78.75
2023-03-05T08:02:11.626Z,78.75
2023-03-05T08:03:11.612Z,78.75
2023-03-05T08:04:11.658Z,84.38
2023-03-05T08:05:11.568Z,84.38
2023-03-05T08:06:11.593Z,95.62
2023-03-05T08:07:11.551Z,101.25
2023-03-05T08:08:11.537Z,106.88
2023-03-05T08:09:11.541Z,112.50
2023-03-05T08:10:11.524Z,118.12
2023-03-05T08:11:11.507Z,123.75
2023-03-05T08:12:11.490Z,129.38
2023-03-05T08:13:11.477Z,135.00
2023-03-05T08:14:11.488Z,140.62
2023-03-05T08:15:11.458Z,140.62
2023-03-05T08:16:11.476Z,146.25
2023-03-05T08:17:11.437Z,151.88
2023-03-05T08:18:11.431Z,157.50
2023-03-05T08:19:11.420Z,157.50
2023-03-05T08:20:11.409Z,157.50
2023-03-05T08:21:11.396Z,157.50
2023-03-05T08:22:11.377Z,157.50
2023-03-05T08:23:11.378Z,157.50
2023-03-05T08:24:11.367Z,163.12
2023-03-05T08:25:11.367Z,163.12
2023-03-05T08:26:11.336Z,163.12
2023-03-05T08:27:11.328Z,168.75
2023-03-05T08:28:11.316Z,168.75
2023-03-05T08:29:11.308Z,174.38
2023-03-05T08:30:11.298Z,185.62
2023-03-05T08:31:11.317Z,202.50
2023-03-05T08:32:11.283Z,225.00
2023-03-05T08:33:11.262Z,247.50
2023-03-05T08:34:11.244Z,270.00
2023-03-05T08:35:11.237Z,286.88
2023-03-05T08:36:11.250Z,298.12
2023-03-05T08:37:11.225Z,303.75
2023-03-05T08:38:11.196Z,303.75
2023-03-05T08:39:11.198Z,309.38
2023-03-05T08:40:11.190Z,320.62
2023-03-05T08:41:11.178Z,326.25
2023-03-05T08:42:11.176Z,326.25
2023-03-05T08:43:11.145Z,326.25
2023-03-05T08:44:11.137Z,326.25
2023-03-05T08:45:11.127Z,320.62
2023-03-05T08:46:11.145Z,320.62
2023-03-05T08:47:11.104Z,326.25
2023-03-05T08:48:11.105Z,326.25
2023-03-05T08:49:11.100Z,326.25
2023-03-05T08:50:11.071Z,320.62
2023-03-05T08:51:11.056Z,309.38
2023-03-05T08:52:11.050Z,303.75
2023-03-05T08:53:11.036Z,303.75
2023-03-05T08:54:11.028Z,303.75
2023-03-05T08:55:11.010Z,309.38
2023-03-05T08:56:10.986Z,309.38
2023-03-05T08:57:10.985Z,309.38
2023-03-05T08:58:10.970Z,309.38
2023-03-05T08:59:12.714Z,315.00
2023-03-05T09:00:10.945Z,315.00
2023-03-05T09:01:10.938Z,320.62
2023-03-05T09:02:10.996Z,326.25
2023-03-05T09:03:10.946Z,331.88
2023-03-05T09:04:10.897Z,337.50
2023-03-05T09:05:10.916Z,337.50
2023-03-05T09:06:10.875Z,331.88
2023-03-05T09:07:10.867Z,331.88
2023-03-05T09:08:10.866Z,326.25
2023-03-05T09:09:10.847Z,320.62
2023-03-05T09:10:10.860Z,320.62
2023-03-05T09:11:10.824Z,309.38
2023-03-05T09:12:12.192Z,303.75
2023-03-05T09:13:10.806Z,286.88
2023-03-05T09:14:10.790Z,264.38
2023-03-05T09:15:10.776Z,258.75
2023-03-05T09:16:10.845Z,264.38
2023-03-05T09:17:10.771Z,258.75
2023-03-05T09:18:10.748Z,258.75
2023-03-05T09:19:10.759Z,258.75
2023-03-05T09:20:10.714Z,253.12
2023-03-05T09:21:10.730Z,253.12
2023-03-05T09:22:10.721Z,253.12
2023-03-05T09:23:10.684Z,247.50
2023-03-05T09:24:10.673Z,253.12
2023-03-05T09:25:10.658Z,253.12
2023-03-05T09:26:10.644Z,258.75
2023-03-05T09:27:10.734Z,253.12
2023-03-05T09:28:10.637Z,247.50
2023-03-05T09:29:10.641Z,247.50
2023-03-05T09:30:10.629Z,247.50
2023-03-05T09:31:10.592Z,253.12
2023-03-05T09:32:10.719Z,253.12
2023-03-05T09:33:10.613Z,258.75
2023-03-05T09:34:10.574Z,258.75
2023-03-05T09:35:10.559Z,264.38
2023-03-05T09:36:10.524Z,264.38
2023-03-05T09:37:10.528Z,275.62
2023-03-05T09:38:10.511Z,286.88
2023-03-05T09:39:10.532Z,298.12
2023-03-05T09:40:10.500Z,303.75
2023-03-05T09:41:10.475Z,303.75
2023-03-05T09:42:10.462Z,298.12
2023-03-05T09:43:10.454Z,292.50
2023-03-05T09:44:10.443Z,292.50
2023-03-05T09:45:10.444Z,292.50
2023-03-05T09:46:10.458Z,275.62
2023-03-05T09:47:10.403Z,270.00
2023-03-05T09:48:10.416Z,275.62
2023-03-05T09:49:10.381Z,286.88
2023-03-05T09:50:10.362Z,303.75
2023-03-05T09:51:10.373Z,303.75
2023-03-05T09:52:10.342Z,303.75
2023-03-05T09:53:10.358Z,303.75
2023-03-05T09:54:10.323Z,309.38
2023-03-05T09:55:10.313Z,298.12
2023-03-05T09:56:10.294Z,292.50
2023-03-05T09:57:10.328Z,292.50
2023-03-05T09:58:10.275Z,292.50
2023-03-05T09:59:10.274Z,309.38
2023-03-05T10:00:10.254Z,331.88
2023-03-05T10:01:10.248Z,331.88
2023-03-05T10:02:10.233Z,331.88
2023-03-05T10:03:10.280Z,326.25
2023-03-05T10:04:10.264Z,326.25
2023-03-05T10:05:10.205Z,326.25
2023-03-05T10:06:10.184Z,326.25
2023-03-05T10:07:10.174Z,331.88
2023-03-05T10:08:10.183Z,343.12
2023-03-05T10:09:10.153Z,343.12
2023-03-05T10:10:10.148Z,348.75
2023-03-05T10:11:10.135Z,354.38
2023-03-05T10:12:10.119Z,371.25
2023-03-05T10:13:10.114Z,376.88
2023-03-05T10:14:10.118Z,371.25
2023-03-05T10:15:10.084Z,393.75
2023-03-05T10:16:10.112Z,405.00
2023-03-05T10:17:10.068Z,405.00
2023-03-05T10:18:10.044Z,399.38
2023-03-05T10:19:10.044Z,393.75
2023-03-05T10:20:10.043Z,399.38
2023-03-05T10:21:10.027Z,405.00
2023-03-05T10:22:10.014Z,410.62
2023-03-05T10:23:09.993Z,416.25
2023-03-05T10:24:09.983Z,421.88
2023-03-05T10:25:09.986Z,427.50
2023-03-05T10:26:09.973Z,427.50
2023-03-05T10:27:10.029Z,427.50
2023-03-05T10:28:09.933Z,421.88
2023-03-05T10:29:09.937Z,410.62
2023-03-05T10:30:09.932Z,405.00
2023-03-05T10:31:09.923Z,405.00
2023-03-05T10:32:10.101Z,410.62
2023-03-05T10:33:16.937Z,421.88
2023-03-05T10:34:09.867Z,427.50
2023-03-05T10:35:09.870Z,438.75
2023-03-05T10:36:09.849Z,455.62
2023-03-05T10:37:09.871Z,478.12
2023-03-05T10:38:09.837Z,523.12
2023-03-05T10:39:09.818Z,579.38
2023-03-05T10:40:09.840Z,613.12
2023-03-05T10:41:09.787Z,646.88
2023-03-05T10:42:09.777Z,669.38
2023-03-05T10:43:09.786Z,686.25
2023-03-05T10:44:09.767Z,697.50
2023-03-05T10:45:09.757Z,703.12
2023-03-05T10:46:09.775Z,703.12
2023-03-05T10:47:09.727Z,697.50
2023-03-05T10:48:09.711Z,703.12
2023-03-05T10:49:09.730Z,714.38
2023-03-05T10:50:09.688Z,725.62
2023-03-05T10:51:09.677Z,736.88
2023-03-05T10:52:09.675Z,742.50
2023-03-05T10:53:09.663Z,736.88
2023-03-05T10:54:09.663Z,731.25
2023-03-05T10:55:09.638Z,714.38
2023-03-05T10:56:09.618Z,703.12
2023-03-05T10:57:09.608Z,697.50
2023-03-05T10:58:09.597Z,703.12
2023-03-05T10:59:09.594Z,714.38
2023-03-05T11:00:09.597Z,736.88
2023-03-05T11:01:09.603Z,748.12
2023-03-05T11:02:09.592Z,742.50
2023-03-05T11:03:09.535Z,731.25
2023-03-05T11:04:09.532Z,714.38
2023-03-05T11:05:09.537Z,691.88
2023-03-05T11:06:09.498Z,663.75
2023-03-05T11:07:09.493Z,635.62
2023-03-05T11:08:09.475Z,590.62
2023-03-05T11:09:09.472Z,568.12
2023-03-05T11:10:09.461Z,562.50
2023-03-05T11:11:09.461Z,545.62
2023-03-05T11:12:09.436Z,523.12
2023-03-05T11:13:09.427Z,506.25
2023-03-05T11:14:09.433Z,489.38
2023-03-05T11:15:09.406Z,466.88
2023-03-05T11:16:09.453Z,450.00
2023-03-05T11:17:09.382Z,433.12
2023-03-05T11:18:09.368Z,421.88
2023-03-05T11:19:09.353Z,416.25
2023-03-05T11:20:09.335Z,410.62
2023-03-05T11:21:09.323Z,410.62
2023-03-05T11:22:09.333Z,410.62
2023-03-05T11:23:09.302Z,410.62
2023-03-05T11:24:09.291Z,393.75
2023-03-05T11:25:09.282Z,360.00
2023-03-05T11:26:09.274Z,320.62
2023-03-05T11:27:09.261Z,292.50
2023-03-05T11:28:09.269Z,270.00
2023-03-05T11:29:09.262Z,253.12
2023-03-05T11:30:09.240Z,253.12
2023-03-05T11:31:09.333Z,247.50
2023-03-05T11:32:09.222Z,253.12
2023-03-05T11:33:10.448Z,247.50
2023-03-05T11:34:09.196Z,241.88
2023-03-05T11:35:09.163Z,241.88
2023-03-05T11:36:09.219Z,236.25
2023-03-05T11:37:09.161Z,225.00
2023-03-05T11:38:09.135Z,225.00
2023-03-05T11:39:09.144Z,225.00
2023-03-05T11:40:09.119Z,225.00
2023-03-05T11:41:09.102Z,225.00
2023-03-05T11:42:09.091Z,225.00
2023-03-05T11:43:09.105Z,225.00
2023-03-05T11:44:09.074Z,230.62
2023-03-05T11:45:09.075Z,230.62
2023-03-05T11:46:09.066Z,230.62
2023-03-05T11:47:09.034Z,225.00
2023-03-05T11:48:09.027Z,213.75
2023-03-05T11:49:09.013Z,208.12
2023-03-05T11:50:08.997Z,202.50
2023-03-05T11:51:09.005Z,196.88
2023-03-05T11:52:08.977Z,191.25
2023-03-05T11:53:09.050Z,191.25
2023-03-05T11:54:08.961Z,191.25
2023-03-05T11:55:08.948Z,185.62
2023-03-05T11:56:08.945Z,185.62
2023-03-05T11:57:09.276Z,180.00
2023-03-05T11:58:08.916Z,174.38
2023-03-05T11:59:08.895Z,174.38
2023-03-05T12:00:08.900Z,168.75
2023-03-05T12:01:08.919Z,168.75
2023-03-05T12:02:08.897Z,168.75
2023-03-05T12:03:09.009Z,168.75
2023-03-05T12:04:08.907Z,168.75
2023-03-05T12:05:08.832Z,168.75
2023-03-05T12:06:08.844Z,168.75
2023-03-05T12:07:09.032Z,163.12
2023-03-05T12:08:08.840Z,163.12
2023-03-05T12:09:08.794Z,168.75
2023-03-05T12:10:08.778Z,174.38
2023-03-05T12:11:08.758Z,185.62
2023-03-05T12:12:08.760Z,191.25
2023-03-05T12:13:08.839Z,196.88
2023-03-05T12:14:08.789Z,213.75
2023-03-05T12:15:08.751Z,225.00
2023-03-05T12:16:08.758Z,253.12
2023-03-05T12:17:08.705Z,275.62
2023-03-05T12:18:08.713Z,298.12
2023-03-05T12:19:08.672Z,320.62
2023-03-05T12:20:08.730Z,331.88
2023-03-05T12:21:08.665Z,348.75
2023-03-05T12:22:08.652Z,376.88
2023-03-05T12:23:08.674Z,405.00
2023-03-05T12:24:08.632Z,438.75
2023-03-05T12:25:08.601Z,472.50
2023-03-05T12:26:08.613Z,506.25
2023-03-05T12:27:08.619Z,528.75
2023-03-05T12:28:08.595Z,540.00
2023-03-05T12:29:08.561Z,534.38
2023-03-05T12:30:08.583Z,517.50
2023-03-05T12:31:08.588Z,495.00
2023-03-05T12:32:08.564Z,472.50
2023-03-05T12:33:08.837Z,455.62
2023-03-05T12:34:08.510Z,444.38
2023-03-05T12:35:08.505Z,444.38
2023-03-05T12:36:08.534Z,444.38
2023-03-05T12:37:08.492Z,444.38
2023-03-05T12:38:25.928Z,438.75
2023-03-05T12:39:09.450Z,427.50
2023-03-05T12:40:08.779Z,405.00
2023-03-05T12:41:08.420Z,393.75
2023-03-05T12:42:08.422Z,376.88
2023-03-05T12:43:08.422Z,365.62
2023-03-05T12:44:08.399Z,348.75
2023-03-05T12:45:08.394Z,348.75
2023-03-05T12:46:08.675Z,337.50
2023-03-05T12:47:08.372Z,331.88
2023-03-05T12:48:08.431Z,320.62
2023-03-05T12:49:08.364Z,303.75
2023-03-05T12:50:08.363Z,292.50
2023-03-05T12:51:08.524Z,270.00
2023-03-05T12:52:08.303Z,253.12
2023-03-05T12:53:08.308Z,230.62
2023-03-05T12:54:08.284Z,219.38
2023-03-05T12:55:08.432Z,196.88